| time (UTC) | temp F | wind direction | speed knots | gust knots | rain 1hr in | rain 24hr in | rain mn in | humidity % | barometer mb |
| 20260510091529 | 59 | 9 | 1.7 | 9.6 | 0.00 | 0.00 | 0.00 | 72 | 1013.7 |
| 20260510090031 | 59 | 19 | 2.6 | 7.8 | 0.00 | 0.00 | 0.00 | 72 | 1013.7 |
| 20260510084550 | 58 | 37 | 2.6 | 7.8 | 0.00 | 0.00 | 0.00 | 73 | 1013.9 |
| 20260510083029 | 58 | 11 | 1.7 | 6.1 | 0.00 | 0.00 | 0.00 | 74 | 1014.0 |
| 20260510081528 | 57 | 46 | 1.7 | 6.1 | 0.00 | 0.00 | 0.00 | 76 | 1014.0 |
| 20260510080031 | 56 | 348 | 2.6 | 7.0 | 0.00 | 0.00 | 0.00 | 78 | 1014.0 |
| 20260510073029 | 55 | 346 | 2.6 | 7.8 | 0.00 | 0.00 | 0.00 | 80 | 1014.3 |
| 20260510071537 | 54 | 9 | 2.6 | 7.8 | 0.00 | 0.00 | 0.00 | 82 | 1014.3 |
| 20260510070031 | 53 | 10 | 1.7 | 5.2 | 0.00 | 0.00 | 0.00 | 83 | 1014.3 |
| 20260510064531 | 53 | 355 | 1.7 | 7.0 | 0.00 | 0.00 | 0.00 | 84 | 1014.3 |
| 20260510063027 | 52 | 11 | 1.7 | 7.0 | 0.00 | 0.00 | 0.00 | 85 | 1014.4 |
| 20260510060028 | 51 | 9 | 0.9 | 4.3 | 0.00 | 0.00 | 0.00 | 86 | 1014.2 |
| 20260510053019 | 50 | 350 | 0.0 | 0.0 | 0.00 | 0.00 | 0.00 | 87 | 1014.2 |
| 20260510050030 | 49 | 12 | 0.0 | 0.0 | 0.00 | 0.00 | 0.00 | 87 | 1014.2 |
| 20260510044523 | 49 | 13 | 0.0 | 0.0 | 0.00 | 0.00 | 0.00 | 87 | 1014.3 |
| 20260510043011 | 49 | 13 | 0.0 | 0.0 | 0.00 | 0.00 | 0.00 | 87 | 1014.2 |
| 20260510041511 | 49 | 15 | 0.0 | 0.0 | 0.00 | 0.00 | 0.00 | 86 | 1014.2 |
| 20260510040015 | 49 | 15 | 0.0 | 0.0 | 0.00 | 0.00 | 0.00 | 86 | 1014.2 |
| 20260510034514 | 49 | 15 | 0.0 | 0.0 | 0.00 | 0.00 | 0.00 | 86 | 1014.1 |
| 20260510033014 | 49 | 19 | 0.0 | 0.0 | 0.00 | 0.00 | 0.00 | 85 | 1014.2 |
| 20260510031501 | 49 | 20 | 0.0 | 0.0 | 0.00 | 0.00 | 0.00 | 85 | 1014.2 |
| 20260510024501 | 50 | 20 | 0.0 | 0.0 | 0.00 | 0.00 | 0.00 | 83 | 1014.5 |
| 20260510023011 | 50 | 28 | 0.0 | 0.0 | 0.00 | 0.00 | 0.00 | 83 | 1014.4 |
| 20260510021438 | 50 | 28 | 0.0 | 0.0 | 0.00 | 0.00 | 0.00 | 84 | 1014.4 |
| 20260510014429 | 50 | 28 | 0.0 | 0.0 | 0.00 | 0.00 | 0.00 | 84 | 1014.6 |
| 20260510012929 | 50 | 28 | 0.0 | 0.0 | 0.00 | 0.00 | 0.00 | 83 | 1014.7 |
| 20260510011429 | 50 | 28 | 0.0 | 0.0 | 0.00 | 0.00 | 0.00 | 84 | 1014.8 |
| 20260510005928 | 50 | 28 | 0.0 | 0.0 | 0.00 | 0.00 | 0.00 | 85 | 1014.9 |
| 20260510004426 | 51 | 28 | 0.0 | 0.0 | 0.00 | 0.00 | 0.00 | 83 | 1014.9 |
| 20260510002904 | 51 | 28 | 0.0 | 0.0 | 0.00 | 0.00 | 0.00 | 80 | 1015.0 |
| 20260510001401 | 51 | 28 | 0.0 | 0.0 | 0.00 | 0.00 | 0.00 | 80 | 1015.1 |
| 20260509235905 | 52 | 28 | 0.0 | 0.0 | 0.00 | 0.00 | 0.00 | 80 | 1015.1 |
| 20260509232901 | 52 | 28 | 0.0 | 0.0 | 0.00 | 0.00 | 0.00 | 79 | 1015.2 |
| 20260509231403 | 52 | 28 | 0.0 | 0.0 | 0.00 | 0.00 | 0.00 | 80 | 1015.3 |
| 20260509225901 | 52 | 28 | 0.0 | 0.0 | 0.00 | 0.00 | 0.00 | 81 | 1015.3 |
| 20260509224405 | 52 | 28 | 0.0 | 0.0 | 0.00 | 0.00 | 0.00 | 80 | 1015.3 |
| 20260509222901 | 52 | 28 | 0.0 | 0.0 | 0.00 | 0.00 | 0.00 | 80 | 1015.4 |
| 20260509212901 | 53 | 28 | 0.0 | 0.0 | 0.00 | 0.00 | 0.00 | 80 | 1015.5 |
| 20260509211403 | 53 | 28 | 0.0 | 0.0 | 0.00 | 0.00 | 0.00 | 79 | 1015.5 |
| 20260509205901 | 54 | 28 | 0.0 | 0.0 | 0.00 | 0.00 | 0.00 | 77 | 1015.2 |
| 20260509204401 | 54 | 28 | 0.0 | 0.0 | 0.00 | 0.00 | 0.00 | 76 | 1015.4 |
| 20260509202902 | 55 | 28 | 0.0 | 0.0 | 0.00 | 0.00 | 0.00 | 74 | 1015.3 |
| 20260509201402 | 56 | 28 | 0.0 | 0.0 | 0.00 | 0.00 | 0.00 | 71 | 1015.4 |
| 20260509195901 | 58 | 28 | 0.0 | 0.0 | 0.00 | 0.00 | 0.00 | 68 | 1015.2 |
| 20260509191343 | 62 | 28 | 0.0 | 0.0 | 0.00 | 0.00 | 0.00 | 61 | 1015.2 |
| 20260509185831 | 65 | 28 | 0.0 | 0.0 | 0.00 | 0.00 | 0.00 | 57 | 1015.1 |
| 20260509184329 | 67 | 28 | 0.0 | 0.9 | 0.00 | 0.00 | 0.00 | 55 | 1015.0 |
| 20260509182831 | 68 | 28 | 0.0 | 0.9 | 0.00 | 0.00 | 0.00 | 53 | 1015.0 |
| 20260509175829 | 69 | 46 | 0.0 | 0.9 | 0.00 | 0.00 | 0.00 | 49 | 1015.1 |
| 20260509172829 | 69 | 5 | 0.9 | 4.3 | 0.00 | 0.00 | 0.00 | 46 | 1014.9 |
| 20260509171327 | 70 | 13 | 0.9 | 4.3 | 0.00 | 0.00 | 0.00 | 46 | 1014.9 |
| 20260509164321 | 70 | 0 | 0.9 | 5.2 | 0.00 | 0.00 | 0.00 | 49 | 1015.1 |
| 20260509162812 | 70 | 349 | 0.9 | 5.2 | 0.00 | 0.00 | 0.00 | 44 | 1015.0 |
| 20260509161303 | 70 | 0 | 1.7 | 4.3 | 0.00 | 0.00 | 0.00 | 43 | 1015.0 |
| 20260509155804 | 70 | 355 | 1.7 | 5.2 | 0.00 | 0.00 | 0.00 | 47 | 1015.0 |
| 20260509154303 | 71 | 355 | 0.0 | 4.3 | 0.00 | 0.00 | 0.00 | 46 | 1015.2 |
| 20260509152801 | 70 | 66 | 0.9 | 5.2 | 0.00 | 0.00 | 0.00 | 50 | 1015.4 |
| 20260509151304 | 69 | 37 | 0.9 | 6.1 | 0.00 | 0.00 | 0.00 | 49 | 1015.4 |
| 20260509145801 | 71 | 355 | 1.7 | 7.8 | 0.00 | 0.00 | 0.00 | 48 | 1015.4 |
| 20260509144303 | 71 | 351 | 1.7 | 6.1 | 0.00 | 0.00 | 0.00 | 48 | 1015.6 |
| 20260509142801 | 71 | 103 | 0.9 | 5.2 | 0.00 | 0.00 | 0.00 | 47 | 1015.7 |
| 20260509141302 | 70 | 9 | 1.7 | 5.2 | 0.00 | 0.00 | 0.00 | 48 | 1015.9 |
| 20260509135801 | 70 | 5 | 0.9 | 6.1 | 0.00 | 0.00 | 0.00 | 50 | 1016.0 |
| 20260509134301 | 70 | 70 | 0.0 | 5.2 | 0.00 | 0.00 | 0.00 | 51 | 1016.0 |
| 20260509132801 | 69 | 94 | 0.9 | 5.2 | 0.00 | 0.00 | 0.00 | 49 | 1016.0 |
| 20260509131301 | 67 | 49 | 0.9 | 4.3 | 0.00 | 0.00 | 0.00 | 49 | 1016.3 |
| 20260509125801 | 67 | 63 | 0.9 | 3.5 | 0.00 | 0.00 | 0.00 | 52 | 1016.5 |
| 20260509124301 | 68 | 81 | 0.9 | 5.2 | 0.00 | 0.00 | 0.00 | 51 | 1016.6 |
| 20260509122804 | 69 | 342 | 1.7 | 7.0 | 0.00 | 0.00 | 0.00 | 48 | 1016.7 |
| 20260509115802 | 69 | 9 | 1.7 | 5.2 | 0.00 | 0.00 | 0.00 | 47 | 1017.0 |
| 20260509114302 | 68 | 70 | 0.9 | 4.3 | 0.00 | 0.00 | 0.00 | 50 | 1017.1 |
| 20260509111304 | 68 | 99 | 0.9 | 7.0 | 0.00 | 0.00 | 0.00 | 50 | 1017.5 |
| 20260509104301 | 67 | 108 | 1.7 | 6.1 | 0.00 | 0.00 | 0.00 | 50 | 1017.6 |
| 20260509102801 | 67 | 131 | 1.7 | 7.0 | 0.00 | 0.00 | 0.00 | 53 | 1017.7 |
| 20260509101305 | 66 | 350 | 2.6 | 6.1 | 0.00 | 0.00 | 0.00 | 52 | 1017.7 |
| 20260509095801 | 66 | 57 | 1.7 | 7.0 | 0.00 | 0.00 | 0.00 | 54 | 1017.7 |
| 20260509094301 | 65 | 355 | 1.7 | 7.0 | 0.00 | 0.00 | 0.00 | 55 | 1017.6 |
| 20260509092802 | 65 | 102 | 1.7 | 5.2 | 0.00 | 0.00 | 0.00 | 54 | 1017.8 |